Time;durP1;ratioP1;P1;durP2;ratioP2;P2;SDS_P1;SDS_P2;PMS_P1;PMS_P2;Temp;Humidity;BMP_temperature;BMP_pressure;BME280_temperature;BME280_humidity;BME280_pressure;Samples;Min_cycle;Max_cycle;Signal;HPM_P1;HPM_P2
2023/07/01 00:02:05;;;;;;;6.25;5.65;;;;;;;17.08;100.00;96380.09;5046445;28;20214;-62
2023/07/01 00:04:31;;;;;;;5.43;4.93;;;;;;;17.09;100.00;96384.44;5073028;28;20202;-62
2023/07/01 00:06:57;;;;;;;6.47;5.45;;;;;;;17.06;100.00;96379.47;5064174;28;20214;-62
2023/07/01 00:09:25;;;;;;;6.18;5.47;;;;;;;17.02;100.00;96375.53;5037290;28;20223;-63
2023/07/01 00:11:53;;;;;;;6.07;5.57;;;;;;;17.01;100.00;96385.38;5041459;28;20208;-61
2023/07/01 00:14:19;;;;;;;7.38;5.80;;;;;;;17.04;100.00;96381.53;5070035;28;20206;-61
2023/07/01 00:16:45;;;;;;;6.60;5.53;;;;;;;17.04;100.00;96378.84;5074304;28;20245;-62
2023/07/01 00:19:12;;;;;;;5.85;5.35;;;;;;;17.05;100.00;96385.81;5060705;28;20206;-62
2023/07/01 00:21:40;;;;;;;6.95;5.57;;;;;;;17.01;100.00;96374.69;5073994;28;20549;-62
2023/07/01 00:24:07;;;;;;;6.40;5.53;;;;;;;17.04;100.00;96376.19;5073862;28;20234;-63
2023/07/01 00:26:35;;;;;;;6.30;5.60;;;;;;;17.03;100.00;96375.34;5063244;28;20663;-62
2023/07/01 00:29:01;;;;;;;5.20;4.88;;;;;;;17.03;100.00;96374.50;5040909;28;20207;-62
2023/07/01 00:31:28;;;;;;;5.55;5.15;;;;;;;16.95;100.00;96369.28;5043365;28;20208;-62
2023/07/01 00:33:56;;;;;;;6.55;5.85;;;;;;;16.95;100.00;96363.94;5066449;28;20268;-62
2023/07/01 00:36:23;;;;;;;5.57;5.07;;;;;;;16.91;100.00;96375.00;5042548;28;20224;-62
2023/07/01 00:38:54;;;;;;;6.25;5.65;;;;;;;16.90;100.00;96370.69;5059342;28;20217;-62
2023/07/01 00:41:21;;;;;;;8.50;5.18;;;;;;;16.84;100.00;96368.75;5074517;28;20213;-62
2023/07/01 00:43:49;;;;;;;6.10;4.90;;;;;;;16.86;100.00;96364.06;5074651;28;20217;-62
2023/07/01 00:46:16;;;;;;;7.32;5.30;;;;;;;16.84;100.00;96362.59;5060809;28;20555;-62
2023/07/01 00:48:43;;;;;;;7.22;5.35;;;;;;;16.83;100.00;96367.09;5034567;28;20725;-63
2023/07/01 00:51:10;;;;;;;5.65;4.78;;;;;;;16.78;100.00;96363.34;5034527;28;20218;-62
2023/07/01 00:53:36;;;;;;;6.50;5.00;;;;;;;16.80;100.00;96361.31;5046330;28;20215;-63
2023/07/01 00:56:03;;;;;;;7.15;5.68;;;;;;;16.82;100.00;96359.28;5041968;28;20227;-63
2023/07/01 00:58:32;;;;;;;6.18;5.28;;;;;;;16.82;100.00;96364.63;5073955;28;20669;-62
2023/07/01 01:01:07;;;;;;;5.13;4.63;;;;;;;16.85;100.00;96354.41;5059341;28;20211;-62
2023/07/01 01:03:38;;;;;;;5.72;5.32;;;;;;;16.88;100.00;96355.88;5061470;28;20213;-62
2023/07/01 01:06:09;;;;;;;5.60;5.20;;;;;;;16.86;100.00;96356.03;5062660;28;20206;-63
2023/07/01 01:08:41;;;;;;;5.97;5.05;;;;;;;16.88;100.00;96356.69;5078433;28;20209;-62
2023/07/01 01:11:08;;;;;;;5.40;5.00;;;;;;;16.88;100.00;96358.53;5056155;28;20286;-61
2023/07/01 01:13:35;;;;;;;4.93;4.53;;;;;;;16.89;100.00;96366.38;5060714;28;20206;-62
2023/07/01 01:16:05;;;;;;;5.13;4.65;;;;;;;16.90;100.00;96367.16;5055442;28;20270;-61
2023/07/01 01:18:33;;;;;;;5.03;4.63;;;;;;;16.90;100.00;96360.00;5061798;28;20661;-62
2023/07/01 01:21:00;;;;;;;4.63;4.22;;;;;;;16.83;100.00;96360.94;5053772;28;20216;-62
2023/07/01 01:23:31;;;;;;;5.78;4.35;;;;;;;16.84;100.00;96355.41;5050690;28;20239;-61
2023/07/01 01:26:06;;;;;;;5.07;4.57;;;;;;;16.85;100.00;96349.06;5044021;28;20207;-62
2023/07/01 01:28:34;;;;;;;5.22;4.82;;;;;;;16.85;100.00;96351.72;5043870;28;20203;-61
2023/07/01 01:31:00;;;;;;;4.32;3.97;;;;;;;16.89;100.00;96354.84;5077117;28;20206;-62
2023/07/01 01:33:27;;;;;;;5.10;4.35;;;;;;;16.86;100.00;96353.38;5061806;28;20211;-63
2023/07/01 01:35:57;;;;;;;5.22;4.63;;;;;;;16.83;100.00;96345.72;5053885;28;20230;-63
2023/07/01 01:38:26;;;;;;;4.18;3.88;;;;;;;16.87;100.00;96347.00;5062384;28;20580;-63
2023/07/01 01:40:54;;;;;;;4.75;4.22;;;;;;;16.86;100.00;96345.34;5056027;28;20206;-62
2023/07/01 01:43:26;;;;;;;4.55;4.00;;;;;;;16.88;100.00;96338.00;5060695;28;20628;-62
2023/07/01 01:45:56;;;;;;;4.38;3.88;;;;;;;16.90;100.00;96340.47;5058914;28;20237;-62
2023/07/01 01:48:23;;;;;;;3.70;3.40;;;;;;;16.91;100.00;96342.13;5074759;28;20658;-62
2023/07/01 01:50:51;;;;;;;4.45;4.05;;;;;;;16.87;100.00;96340.84;5046600;28;20203;-62
2023/07/01 01:53:19;;;;;;;4.63;4.10;;;;;;;16.83;100.00;96340.41;5042004;28;20207;-62
2023/07/01 01:55:46;;;;;;;6.57;4.15;;;;;;;16.84;100.00;96335.88;5038160;28;20216;-62
2023/07/01 01:58:12;;;;;;;4.85;4.15;;;;;;;16.87;100.00;96335.50;5055594;28;20207;-63
2023/07/01 02:00:39;;;;;;;5.75;3.88;;;;;;;16.89;100.00;96328.16;5058814;28;20214;-61
2023/07/01 02:03:07;;;;;;;3.67;3.30;;;;;;;16.89;100.00;96331.66;5075112;28;20207;-62
2023/07/01 02:05:33;;;;;;;3.60;3.30;;;;;;;16.89;100.00;96328.97;5079437;28;20187;-62
2023/07/01 02:08:02;;;;;;;4.38;3.97;;;;;;;16.91;100.00;96332.28;5099002;28;20206;-63
2023/07/01 02:10:29;;;;;;;4.47;3.53;;;;;;;16.91;100.00;96334.13;5082508;28;20234;-61
2023/07/01 02:12:55;;;;;;;3.85;3.40;;;;;;;16.93;100.00;96327.56;5051441;28;20306;-63
2023/07/01 02:15:21;;;;;;;4.25;3.85;;;;;;;16.96;100.00;96329.03;5057713;28;20220;-63
2023/07/01 02:17:48;;;;;;;4.05;3.70;;;;;;;16.96;100.00;96330.88;5056334;28;20606;-62
2023/07/01 02:20:16;;;;;;;4.22;3.85;;;;;;;16.95;100.00;96326.53;5057462;28;20296;-62
2023/07/01 02:22:42;;;;;;;3.70;3.40;;;;;;;16.93;100.00;96324.88;5056883;28;20235;-63
2023/07/01 02:25:09;;;;;;;4.03;3.72;;;;;;;16.96;100.00;96329.03;5057242;28;20285;-62
2023/07/01 02:27:35;;;;;;;5.43;3.67;;;;;;;16.96;100.00;96323.69;5056165;28;20222;-62
2023/07/01 02:30:03;;;;;;;3.63;3.33;;;;;;;16.97;100.00;96324.53;5056687;28;20218;-62
2023/07/01 02:32:29;;;;;;;4.82;3.50;;;;;;;16.96;100.00;96323.69;5056315;28;20257;-63
2023/07/01 02:34:56;;;;;;;3.50;3.30;;;;;;;16.97;100.00;96327.19;5057326;28;20245;-62
2023/07/01 02:37:24;;;;;;;3.50;3.28;;;;;;;16.98;100.00;96326.16;5056772;28;20568;-63
2023/07/01 02:39:51;;;;;;;3.53;3.33;;;;;;;16.96;100.00;96322.88;5057403;28;20203;-62
2023/07/01 02:42:20;;;;;;;3.90;3.60;;;;;;;16.92;100.00;96322.41;5052373;28;20208;-63
2023/07/01 02:44:47;;;;;;;3.83;3.53;;;;;;;16.96;100.00;96328.22;5053892;28;20215;-63
2023/07/01 02:47:14;;;;;;;3.50;3.30;;;;;;;16.96;100.00;96320.19;5058213;28;20203;-63
2023/07/01 02:49:41;;;;;;;4.00;3.70;;;;;;;16.97;100.00;96324.53;5054347;28;20207;-63
2023/07/01 02:52:08;;;;;;;3.53;3.33;;;;;;;16.96;100.00;96317.53;5036734;28;20212;-62
2023/07/01 02:54:39;;;;;;;3.50;3.30;;;;;;;16.97;100.00;96319.19;5041348;28;20270;-62
2023/07/01 02:57:08;;;;;;;4.28;3.63;;;;;;;16.95;100.00;96321.19;5066739;28;20214;-62
2023/07/01 02:59:34;;;;;;;3.92;3.63;;;;;;;16.95;100.00;96316.69;5038332;28;20246;-62
2023/07/01 03:02:01;;;;;;;4.32;3.90;;;;;;;16.92;100.00;96315.22;5040593;28;20199;-63
2023/07/01 03:04:27;;;;;;;3.80;3.47;;;;;;;16.94;100.00;96320.38;5060191;28;20213;-62
2023/07/01 03:06:54;;;;;;;3.63;3.42;;;;;;;16.94;100.00;96320.38;5075900;28;20233;-63
2023/07/01 03:09:20;;;;;;;3.88;3.58;;;;;;;16.91;100.00;96321.59;5062675;28;20206;-63
2023/07/01 03:11:48;;;;;;;3.65;3.35;;;;;;;16.89;100.00;96315.63;5061271;28;20552;-63
2023/07/01 03:14:15;;;;;;;4.68;3.20;;;;;;;16.92;100.00;96317.91;5066679;28;20558;-62
2023/07/01 03:16:42;;;;;;;3.97;3.67;;;;;;;16.89;100.00;96318.28;5044955;28;20278;-64
2023/07/01 03:19:09;;;;;;;3.72;3.35;;;;;;;16.94;100.00;96320.38;5058325;28;20215;-62
2023/07/01 03:21:37;;;;;;;4.05;3.65;;;;;;;16.89;100.00;96320.13;5064027;28;20218;-62
2023/07/01 03:24:03;;;;;;;4.40;4.00;;;;;;;16.88;100.00;96315.78;5036420;28;20247;-62
2023/07/01 03:26:30;;;;;;;4.35;3.90;;;;;;;16.88;100.00;96316.63;5058720;28;20211;-62
2023/07/01 03:28:58;;;;;;;5.75;5.25;;;;;;;16.91;100.00;96315.41;5051118;28;20238;-62
2023/07/01 03:31:25;;;;;;;5.32;4.80;;;;;;;16.95;100.00;96321.19;5047792;28;20211;-62
2023/07/01 03:33:51;;;;;;;4.05;3.70;;;;;;;16.92;100.00;96319.75;5042355;28;20207;-62
2023/07/01 03:36:18;;;;;;;3.65;3.45;;;;;;;16.93;100.00;96314.19;5043873;28;20214;-62
2023/07/01 03:38:44;;;;;;;3.80;3.50;;;;;;;16.95;100.00;96313.19;5055893;28;20203;-62
2023/07/01 03:41:11;;;;;;;4.75;3.90;;;;;;;16.89;100.00;96304.09;5055968;28;20211;-62
2023/07/01 03:43:41;;;;;;;4.25;3.85;;;;;;;16.90;100.00;96309.25;5046599;28;20217;-62
2023/07/01 03:46:09;;;;;;;3.90;3.60;;;;;;;16.92;100.00;96307.22;5075263;28;20588;-62
2023/07/01 03:48:36;;;;;;;4.30;3.90;;;;;;;16.95;100.00;96310.53;5049974;28;20240;-63
2023/07/01 03:51:02;;;;;;;3.95;3.65;;;;;;;16.92;100.00;96312.56;5035307;28;20586;-63
2023/07/01 03:53:29;;;;;;;3.90;3.45;;;;;;;16.94;100.00;96309.69;5046198;28;20229;-62
2023/07/01 03:55:55;;;;;;;3.25;3.05;;;;;;;16.95;100.00;96303.34;5041915;28;20651;-62
2023/07/01 03:58:24;;;;;;;4.72;3.70;;;;;;;16.98;100.00;96307.47;5034754;28;20580;-61
2023/07/01 04:00:50;;;;;;;3.88;3.63;;;;;;;16.92;100.00;96303.72;5048749;28;20207;-61
2023/07/01 04:03:18;;;;;;;3.90;3.60;;;;;;;16.91;100.00;96297.56;5049645;28;20214;-62
2023/07/01 04:05:44;;;;;;;3.70;3.40;;;;;;;16.93;100.00;96303.50;5054193;28;20210;-62
2023/07/01 04:08:11;;;;;;;3.58;3.35;;;;;;;16.95;100.00;96299.84;5042983;28;20580;-63
2023/07/01 04:10:38;;;;;;;4.00;3.70;;;;;;;16.98;100.00;96302.13;5069431;28;20207;-63
2023/07/01 04:13:04;;;;;;;3.47;3.20;;;;;;;16.93;100.00;96303.50;5052369;28;20648;-62
2023/07/01 04:15:31;;;;;;;4.00;3.60;;;;;;;16.93;100.00;96303.50;5070432;28;20210;-63
2023/07/01 04:17:57;;;;;;;4.00;3.70;;;;;;;16.93;100.00;96303.50;5076108;28;20241;-62
2023/07/01 04:20:26;;;;;;;3.97;3.67;;;;;;;16.95;100.00;96298.00;5050857;28;20211;-62
2023/07/01 04:22:54;;;;;;;5.00;3.38;;;;;;;16.96;100.00;96293.47;5051381;28;20308;-61
2023/07/01 04:25:21;;;;;;;5.15;3.67;;;;;;;16.95;100.00;96291.81;5065338;28;20541;-61
2023/07/01 04:27:47;;;;;;;4.75;3.28;;;;;;;16.93;100.00;96292.03;5074202;28;20528;-64
2023/07/01 04:30:15;;;;;;;4.47;3.75;;;;;;;16.99;100.00;96291.25;5061170;28;20302;-63
2023/07/01 04:32:41;;;;;;;3.80;3.53;;;;;;;17.00;100.00;96297.44;5066155;28;20539;-61
2023/07/01 04:35:08;;;;;;;5.82;3.90;;;;;;;17.00;100.00;96294.75;5056330;28;20203;-62
2023/07/01 04:37:36;;;;;;;4.05;3.35;;;;;;;16.95;100.00;96299.84;5065403;28;20223;-63
2023/07/01 04:40:04;;;;;;;4.22;3.92;;;;;;;16.98;100.00;96296.78;5067633;28;20210;-63
2023/07/01 04:42:31;;;;;;;3.67;3.47;;;;;;;16.99;100.00;96301.94;5063315;28;20257;-63
2023/07/01 04:44:58;;;;;;;3.47;3.28;;;;;;;17.00;100.00;96292.91;5058524;28;20223;-62
2023/07/01 04:47:25;;;;;;;3.85;3.28;;;;;;;16.99;100.00;96296.59;5063610;28;20221;-62
2023/07/01 04:49:52;;;;;;;6.55;3.53;;;;;;;17.01;100.00;96289.22;5043200;28;20199;-62
2023/07/01 04:52:19;;;;;;;3.50;3.10;;;;;;;17.01;100.00;96285.69;5055742;28;20202;-62
2023/07/01 04:54:49;;;;;;;3.60;3.28;;;;;;;17.04;100.00;96293.38;5070525;28;20293;-62
2023/07/01 04:57:15;;;;;;;4.22;3.20;;;;;;;17.06;100.00;96293.97;5064973;28;20226;-63
2023/07/01 04:59:42;;;;;;;3.60;3.30;;;;;;;17.07;100.00;96301.81;5060703;28;20211;-62
2023/07/01 05:02:11;;;;;;;3.63;3.25;;;;;;;17.07;100.00;96295.66;5063492;28;20199;-62
2023/07/01 05:04:38;;;;;;;3.63;3.42;;;;;;;17.12;100.00;96301.22;5054606;28;20202;-62
2023/07/01 05:07:05;;;;;;;3.35;3.15;;;;;;;17.12;100.00;96299.38;5042567;28;20204;-63
2023/07/01 05:09:31;;;;;;;3.88;3.40;;;;;;;17.12;100.00;96307.41;5047812;28;20279;-62
2023/07/01 05:11:59;;;;;;;3.70;3.40;;;;;;;17.14;100.00;96301.88;5059430;28;20214;-63
2023/07/01 05:14:25;;;;;;;3.67;3.33;;;;;;;17.17;100.00;96307.66;5049293;28;20208;-62
2023/07/01 05:16:52;;;;;;;3.45;2.78;;;;;;;17.18;100.00;96305.81;5059280;28;20215;-62
2023/07/01 05:19:18;;;;;;;3.40;3.10;;;;;;;17.19;100.00;96305.63;5049940;28;20266;-63
2023/07/01 05:21:53;;;;;;;3.47;3.20;;;;;;;17.20;100.00;96303.78;5047120;28;20230;-62
2023/07/01 05:24:20;;;;;;;3.70;3.40;;;;;;;17.20;100.00;96303.78;5048727;28;20242;-62
2023/07/01 05:26:48;;;;;;;3.30;3.10;;;;;;;17.23;100.00;96303.38;5060731;28;20298;-63
2023/07/01 05:29:16;;;;;;;3.67;3.30;;;;;;;17.24;100.00;96305.03;5041739;28;20207;-63
2023/07/01 05:31:44;;;;;;;3.92;3.63;;;;;;;17.27;100.00;96304.66;5054034;28;20515;-63
2023/07/01 05:34:11;;;;;;;7.45;3.63;;;;;;;17.30;100.00;96298.91;5054301;28;20210;-62
2023/07/01 05:36:37;;;;;;;3.80;3.20;;;;;;;17.29;100.00;96303.44;5068866;28;20305;-62
2023/07/01 05:39:04;;;;;;;3.47;3.17;;;;;;;17.26;100.00;96303.81;5054130;28;20255;-62
2023/07/01 05:41:31;;;;;;;3.17;2.97;;;;;;;17.32;100.00;96307.59;5054245;28;20227;-63
2023/07/01 05:43:57;;;;;;;3.60;3.30;;;;;;;17.36;100.00;96306.16;5055345;28;20284;-61
2023/07/01 05:46:25;;;;;;;4.93;3.53;;;;;;;17.33;100.00;96303.88;5055621;28;20244;-62
2023/07/01 05:48:51;;;;;;;4.22;3.10;;;;;;;17.40;100.00;96310.09;5053332;28;20226;-62
2023/07/01 05:51:18;;;;;;;4.03;3.22;;;;;;;17.42;100.00;96313.44;5042447;28;20207;-62
2023/07/01 05:53:45;;;;;;;3.70;3.42;;;;;;;17.31;100.00;96305.94;5072265;28;20270;-62
2023/07/01 05:56:13;;;;;;;3.40;3.10;;;;;;;17.39;100.00;96303.94;5057525;28;20203;-62
2023/07/01 05:58:39;;;;;;;3.53;3.30;;;;;;;17.47;100.00;96310.16;5065680;28;20558;-62
2023/07/01 06:01:06;;;;;;;3.90;3.60;;;;;;;17.40;100.00;96304.75;5059661;28;20635;-62
2023/07/01 06:03:34;;;;;;;4.30;3.10;;;;;;;17.47;100.00;96299.47;5054149;28;20253;-62
2023/07/01 06:06:02;;;;;;;3.15;2.95;;;;;;;17.54;100.00;96306.50;5043775;28;20519;-61
2023/07/01 06:08:28;;;;;;;3.10;2.90;;;;;;;17.58;100.00;96302.47;5048532;28;20204;-62
2023/07/01 06:10:55;;;;;;;3.40;3.10;;;;;;;17.65;100.00;96302.50;5050939;28;20272;-62
2023/07/01 06:13:23;;;;;;;4.22;2.97;;;;;;;17.72;100.00;96303.38;5036801;28;20204;-62
2023/07/01 06:15:50;;;;;;;3.30;3.10;;;;;;;17.70;100.00;96303.59;5042091;28;20211;-62
2023/07/01 06:18:16;;;;;;;3.47;3.17;;;;;;;17.74;100.00;96307.53;5067051;28;20251;-62
2023/07/01 06:20:44;;;;;;;3.58;3.28;;;;;;;17.75;100.00;96303.81;5072866;28;20229;-62
2023/07/01 06:23:10;;;;;;;3.20;2.95;;;;;;;17.79;100.00;96304.25;5066418;28;20280;-62
2023/07/01 06:25:37;;;;;;;3.83;2.92;;;;;;;17.82;100.00;96309.19;5073178;28;20572;-61
2023/07/01 06:28:04;;;;;;;2.83;2.63;;;;;;;17.92;100.00;96306.19;5067399;28;20207;-62
2023/07/01 06:30:32;;;;;;;3.00;2.70;;;;;;;17.99;100.00;96307.06;5060879;28;20192;-63
2023/07/01 06:33:00;;;;;;;4.35;3.00;;;;;;;18.00;100.00;96311.38;5060345;28;20188;-62
2023/07/01 06:35:27;;;;;;;3.08;2.88;;;;;;;18.07;100.00;96301.53;5060666;28;20699;-62
2023/07/01 06:37:57;;;;;;;5.78;3.30;;;;;;;18.10;100.00;96306.50;5067007;28;20234;-62
2023/07/01 06:40:23;;;;;;;2.70;2.50;;;;;;;17.92;100.00;96302.47;5044095;28;20206;-63
2023/07/01 06:42:50;;;;;;;2.20;2.10;;;;;;;17.82;93.54;96299.34;5056622;28;20222;-63
2023/07/01 06:45:17;;;;;;;2.97;2.47;;;;;;;17.74;90.00;96291.47;5043471;28;20302;-63
2023/07/01 06:47:43;;;;;;;3.33;2.67;;;;;;;17.70;91.15;96300.91;5068147;28;20202;-63
2023/07/01 06:50:11;;;;;;;2.53;2.33;;;;;;;17.77;92.68;96300.97;5064566;28;20196;-62
2023/07/01 06:52:38;;;;;;;4.22;2.25;;;;;;;17.74;94.45;96301.34;5062547;28;20215;-62
2023/07/01 06:55:07;;;;;;;10.60;2.55;;;;;;;17.84;96.38;96299.97;5040442;28;20222;-62
2023/07/01 06:57:34;;;;;;;2.28;2.15;;;;;;;17.73;94.27;96300.53;5062639;28;20528;-63
2023/07/01 07:00:00;;;;;;;2.40;2.20;;;;;;;17.74;92.54;96296.84;5062599;28;20263;-63
2023/07/01 07:02:27;;;;;;;2.15;2.05;;;;;;;17.77;92.73;96292.94;5061911;28;20207;-62
2023/07/01 07:04:53;;;;;;;2.20;2.10;;;;;;;18.01;99.67;96295.13;5042424;28;20207;-62
2023/07/01 07:07:20;;;;;;;2.17;2.08;;;;;;;18.25;97.06;96293.81;5055370;28;20237;-62
2023/07/01 07:09:46;;;;;;;3.53;2.65;;;;;;;18.72;96.42;96291.13;5036024;28;20211;-63
2023/07/01 07:12:14;;;;;;;3.40;2.38;;;;;;;19.20;91.59;96289.16;5042239;28;20204;-63
2023/07/01 07:14:40;;;;;;;2.28;2.17;;;;;;;19.46;83.02;96282.16;5035914;28;20219;-63
2023/07/01 07:17:07;;;;;;;5.55;2.53;;;;;;;19.85;83.09;96274.91;5049367;28;20222;-63
2023/07/01 07:19:35;;;;;;;2.55;2.00;;;;;;;20.25;81.36;96285.53;5068515;28;20223;-63
2023/07/01 07:22:01;;;;;;;4.18;2.58;;;;;;;20.37;76.37;96283.84;5068761;28;20275;-62
2023/07/01 07:24:28;;;;;;;2.53;2.42;;;;;;;20.29;75.35;96294.84;5048555;28;20207;-62
2023/07/01 07:26:56;;;;;;;2.53;2.10;;;;;;;20.30;76.09;96281.22;5050035;28;20272;-63
2023/07/01 07:29:24;;;;;;;2.28;2.03;;;;;;;20.53;79.23;96283.41;5063313;28;20234;-62
2023/07/01 07:31:51;;;;;;;2.88;2.58;;;;;;;20.52;79.29;96286.28;5059251;28;20223;-63
2023/07/01 07:34:17;;;;;;;2.60;2.40;;;;;;;20.29;75.91;96284.94;5043560;28;20226;-63
2023/07/01 07:36:44;;;;;;;2.58;2.38;;;;;;;20.60;75.10;96286.88;5055432;28;20207;-63
2023/07/01 07:39:12;;;;;;;2.40;2.30;;;;;;;20.74;74.69;96284.94;5051529;28;20234;-62
2023/07/01 07:41:38;;;;;;;2.53;2.22;;;;;;;20.92;73.61;96284.22;5075124;28;20210;-63
2023/07/01 07:44:05;;;;;;;3.38;2.30;;;;;;;21.09;77.05;96269.22;5074820;28;20210;-63
2023/07/01 07:46:33;;;;;;;4.97;2.65;;;;;;;21.12;75.25;96266.13;5075033;28;20221;-63
2023/07/01 07:48:59;;;;;;;2.60;2.28;;;;;;;21.24;74.88;96270.59;5074989;28;20214;-61
2023/07/01 07:51:26;;;;;;;3.00;2.80;;;;;;;21.14;72.63;96272.13;5042369;28;20215;-62
2023/07/01 07:53:52;;;;;;;2.30;2.10;;;;;;;21.49;78.00;96267.91;5038844;28;20207;-62
2023/07/01 07:56:19;;;;;;;2.65;2.45;;;;;;;21.64;71.30;96265.72;5048597;28;20551;-61
2023/07/01 07:58:45;;;;;;;2.90;2.53;;;;;;;21.41;71.43;96262.78;5035008;28;20695;-63
2023/07/01 08:01:12;;;;;;;3.33;3.00;;;;;;;21.67;72.88;96254.50;5068158;28;20696;-63
2023/07/01 08:03:40;;;;;;;3.38;2.60;;;;;;;21.79;70.91;96266.16;5067469;28;20202;-62
2023/07/01 08:06:07;;;;;;;2.80;2.33;;;;;;;22.09;73.38;96265.47;5071052;28;20239;-62
2023/07/01 08:08:34;;;;;;;2.60;2.25;;;;;;;22.11;69.12;96264.19;5054856;28;20203;-62
2023/07/01 08:11:01;;;;;;;3.38;2.47;;;;;;;22.37;70.83;96263.09;5045215;28;20558;-62
2023/07/01 08:13:27;;;;;;;2.60;2.40;;;;;;;22.85;69.11;96251.50;5067574;28;20221;-62
2023/07/01 08:15:54;;;;;;;2.30;2.13;;;;;;;23.02;67.59;96256.03;5056739;28;20214;-62
2023/07/01 08:18:20;;;;;;;4.25;2.30;;;;;;;23.15;64.12;96250.44;5044114;28;20254;-62
2023/07/01 08:20:50;;;;;;;2.80;2.15;;;;;;;23.42;64.83;96245.44;5056314;28;20214;-62
2023/07/01 08:23:18;;;;;;;3.90;2.30;;;;;;;23.57;63.63;96245.81;5063104;28;20326;-62
2023/07/01 08:25:46;;;;;;;2.35;2.15;;;;;;;23.66;65.25;96241.72;5041706;28;20206;-61
2023/07/01 08:28:12;;;;;;;2.20;2.00;;;;;;;23.74;63.76;96232.44;5066181;28;20209;-62
2023/07/01 08:30:39;;;;;;;2.53;2.20;;;;;;;23.34;64.63;96234.97;5061090;28;20598;-62
2023/07/01 08:33:06;;;;;;;3.00;2.05;;;;;;;23.19;64.88;96245.38;5062984;28;20215;-62
2023/07/01 08:35:32;;;;;;;2.75;2.55;;;;;;;23.11;64.11;96234.91;5073304;28;20214;-62
2023/07/01 08:38:00;;;;;;;2.78;2.63;;;;;;;23.38;66.94;96233.47;5061239;28;20222;-62
2023/07/01 08:40:26;;;;;;;3.50;2.65;;;;;;;23.44;65.84;96237.13;5041240;28;20597;-62
2023/07/01 08:42:57;;;;;;;3.55;2.65;;;;;;;23.01;64.91;96234.66;5042611;28;20210;-62
2023/07/01 08:45:25;;;;;;;2.78;2.53;;;;;;;22.71;67.73;96232.81;5076097;28;20206;-63
2023/07/01 08:47:53;;;;;;;2.17;1.98;;;;;;;22.47;67.44;96235.59;5064983;28;20219;-63
2023/07/01 08:50:21;;;;;;;2.67;2.47;;;;;;;22.16;68.92;96233.91;5036533;28;20200;-63
2023/07/01 08:52:49;;;;;;;3.30;2.35;;;;;;;21.93;68.39;96228.41;5063476;28;20226;-63
2023/07/01 08:55:17;;;;;;;2.25;2.15;;;;;;;22.05;71.25;96231.97;5045465;28;20211;-62
2023/07/01 08:57:44;;;;;;;2.42;2.22;;;;;;;21.39;69.99;96232.63;5042016;28;20219;-62
2023/07/01 09:00:13;;;;;;;2.53;2.42;;;;;;;21.29;71.14;96227.72;5075181;28;20687;-63
2023/07/01 09:02:40;;;;;;;2.33;2.13;;;;;;;21.54;71.52;96230.38;5064678;28;20282;-63
2023/07/01 09:05:07;;;;;;;2.33;2.15;;;;;;;21.60;71.04;96218.75;5046229;28;20208;-63
2023/07/01 09:07:34;;;;;;;2.60;2.30;;;;;;;22.18;72.73;96210.25;5062756;28;20211;-62
2023/07/01 09:10:02;;;;;;;2.53;2.30;;;;;;;22.60;71.44;96211.97;5044372;28;20270;-63
2023/07/01 09:12:31;;;;;;;2.35;2.15;;;;;;;22.95;72.10;96211.31;5042755;28;20211;-62
2023/07/01 09:15:01;;;;;;;3.38;2.47;;;;;;;23.26;66.33;96200.25;5064049;28;20210;-63
2023/07/01 09:17:30;;;;;;;3.50;2.00;;;;;;;23.53;65.85;96204.16;5070278;28;20206;-61
2023/07/01 09:19:59;;;;;;;2.33;2.08;;;;;;;23.81;64.45;96199.94;5044180;28;20227;-62
2023/07/01 09:22:25;;;;;;;2.60;2.30;;;;;;;23.73;62.96;96198.41;5065433;28;20263;-61
2023/07/01 09:24:52;;;;;;;2.15;1.95;;;;;;;23.59;64.58;96191.59;5044036;28;20218;-62
2023/07/01 09:27:18;;;;;;;2.72;1.90;;;;;;;23.73;64.65;96187.63;5049744;28;20215;-63
2023/07/01 09:29:46;;;;;;;2.88;2.08;;;;;;;24.01;67.84;96184.97;5060010;28;20203;-62
2023/07/01 09:32:25;;;;;;;2.33;2.05;;;;;;;23.93;62.09;96195.31;5073665;28;20207;-62
2023/07/01 09:34:56;;;;;;;1.98;1.88;;;;;;;23.58;61.88;96179.16;5071262;28;20285;-62
2023/07/01 09:37:22;;;;;;;2.40;2.30;;;;;;;23.09;62.17;96189.31;5056299;28;20599;-63
2023/07/01 09:39:49;;;;;;;2.10;2.00;;;;;;;23.14;63.20;96183.19;5057736;28;20245;-62
2023/07/01 09:42:16;;;;;;;2.40;2.20;;;;;;;23.43;62.14;96182.31;5057982;28;20222;-62
2023/07/01 09:44:43;;;;;;;1.98;1.88;;;;;;;23.46;63.02;96179.16;5057205;28;20573;-61
2023/07/01 09:47:25;;;;;;;3.42;1.80;;;;;;;23.75;64.91;96174.69;5057805;28;20211;-62
2023/07/01 09:49:53;;;;;;;2.10;1.90;;;;;;;23.76;63.74;96169.06;5053899;28;20206;-62
2023/07/01 09:52:31;;;;;;;3.35;2.00;;;;;;;24.04;63.35;96180.97;5037085;28;20212;-62
2023/07/01 09:54:58;;;;;;;4.00;1.92;;;;;;;24.20;60.87;96166.75;5055349;28;20594;-61
2023/07/01 09:57:25;;;;;;;2.85;2.20;;;;;;;24.41;61.45;96160.66;5061784;28;20210;-62
2023/07/01 09:59:53;;;;;;;2.33;1.80;;;;;;;24.57;61.38;96161.78;5076974;28;20222;-62
2023/07/01 10:02:21;;;;;;;2.63;1.67;;;;;;;24.55;61.10;96162.03;5063945;28;20628;-62
2023/07/01 10:04:48;;;;;;;1.73;1.50;;;;;;;24.57;61.81;96157.22;5043479;28;20207;-63
2023/07/01 10:07:15;;;;;;;5.78;2.40;;;;;;;24.65;60.91;96154.13;5044352;28;20212;-62
2023/07/01 10:09:43;;;;;;;3.40;1.85;;;;;;;24.18;56.79;96149.97;5050392;28;20207;-61
2023/07/01 10:12:11;;;;;;;1.88;1.77;;;;;;;23.94;59.43;96153.75;5050358;28;20199;-62
2023/07/01 10:14:38;;;;;;;1.83;1.73;;;;;;;24.07;59.93;96145.38;5076231;28;20529;-63
2023/07/01 10:17:05;;;;;;;2.63;2.00;;;;;;;24.37;63.24;96159.53;5063299;28;20297;-62
2023/07/01 10:19:34;;;;;;;1.98;1.88;;;;;;;23.97;58.66;96161.38;5069090;28;20320;-62
2023/07/01 10:22:19;;;;;;;1.95;1.85;;;;;;;24.39;59.60;96149.28;5044326;28;20281;-62
2023/07/01 10:24:46;;;;;;;5.57;1.85;;;;;;;24.62;58.43;96135.66;5077034;28;20210;-64
2023/07/01 10:27:13;;;;;;;2.10;1.88;;;;;;;24.82;60.02;96135.22;5076551;28;20210;-63
2023/07/01 10:29:40;;;;;;;1.83;1.63;;;;;;;25.06;62.25;96131.31;5065793;28;20569;-62
2023/07/01 10:32:31;;;;;;;1.98;1.88;;;;;;;24.87;54.98;96134.50;5074062;28;20272;-61
2023/07/01 10:35:10;;;;;;;1.58;1.48;;;;;;;24.35;54.59;96134.63;5076165;28;20293;-62
2023/07/01 10:37:37;;;;;;;1.85;1.75;;;;;;;24.27;59.17;96125.00;5055119;28;20209;-61
2023/07/01 10:40:38;;;;;;;2.08;1.92;;;;;;;24.24;59.67;96130.06;5069443;28;20226;-62
2023/07/01 10:43:24;;;;;;;3.38;2.08;;;;;;;24.29;58.09;96116.69;5040092;28;20207;-62
2023/07/01 10:46:08;;;;;;;1.98;1.75;;;;;;;24.07;59.26;96127.28;5066834;28;20221;-63
2023/07/01 10:48:34;;;;;;;1.88;1.77;;;;;;;23.46;57.71;96130.56;5070264;28;20639;-62
2023/07/01 10:51:04;;;;;;;2.50;2.22;;;;;;;23.17;60.10;96126.09;5042317;28;20200;-61
2023/07/01 10:53:31;;;;;;;6.47;5.40;;;;;;;23.21;61.27;96113.78;5036151;28;20587;-63
2023/07/01 10:56:11;;;;;;;2.22;2.13;;;;;;;23.07;59.12;96120.44;5038727;28;20207;-61
2023/07/01 10:58:38;;;;;;;1.98;1.77;;;;;;;23.16;60.87;96108.28;5080200;28;20206;-62
2023/07/01 11:01:04;;;;;;;4.45;1.92;;;;;;;23.08;59.70;96108.63;5065806;28;20650;-63
2023/07/01 11:03:56;;;;;;;3.45;1.88;;;;;;;23.40;61.59;96107.22;5068528;28;20271;-62
2023/07/01 11:06:24;;;;;;;1.60;1.50;;;;;;;23.53;59.72;96106.16;5079058;28;20213;-63
2023/07/01 11:08:53;;;;;;;2.00;1.90;;;;;;;23.57;58.21;96102.75;5067718;28;20223;-62
2023/07/01 11:11:22;;;;;;;1.75;1.65;;;;;;;23.87;58.80;96090.97;5045079;28;20218;-62
2023/07/01 11:13:56;;;;;;;2.85;2.00;;;;;;;23.97;57.59;96091.97;5051236;28;20211;-63
2023/07/01 11:16:23;;;;;;;6.88;6.18;;;;;;;24.30;57.07;96090.47;5049757;28;20210;-63
2023/07/01 11:18:51;;;;;;;3.72;2.45;;;;;;;24.51;56.52;96087.91;5057964;28;20516;-63
2023/07/01 11:21:19;;;;;;;1.90;1.80;;;;;;;24.42;56.91;96089.34;5077942;28;20628;-63
2023/07/01 11:23:53;;;;;;;2.17;2.08;;;;;;;24.36;54.64;96084.91;5068906;28;20238;-63
2023/07/01 11:26:21;;;;;;;2.35;1.85;;;;;;;24.31;54.22;96074.00;5046354;28;20216;-63
2023/07/01 11:28:48;;;;;;;4.15;1.83;;;;;;;24.36;55.73;96081.38;5038293;28;20203;-60
2023/07/01 11:31:16;;;;;;;4.00;2.20;;;;;;;24.40;52.70;96075.25;5038076;28;20234;-61
2023/07/01 11:33:46;;;;;;;2.60;1.70;;;;;;;24.58;55.85;96072.34;5040919;28;20303;-62